Time;durP1;ratioP1;P1;durP2;ratioP2;P2;SDS_P1;SDS_P2;PMS_P1;PMS_P2;Temp;Humidity;BMP_temperature;BMP_pressure;BME280_temperature;BME280_humidity;BME280_pressure;Samples;Min_cycle;Max_cycle;Signal;HPM_P1;HPM_P2
2022/01/10 00:02:36;;;;;;;3.60;1.73;;;;;;;1.26;79.98;96866.09;6239415;28;20223;-74
2022/01/10 00:05:39;;;;;;;3.90;1.67;;;;;;;1.24;80.22;96865.34;6231257;28;20236;-73
2022/01/10 00:08:41;;;;;;;3.87;2.00;;;;;;;1.21;80.67;96870.69;6250503;28;20733;-73
2022/01/10 00:11:43;;;;;;;3.23;1.80;;;;;;;1.17;80.84;96886.56;6256632;28;20227;-73
2022/01/10 00:14:45;;;;;;;4.20;2.50;;;;;;;1.13;81.32;96883.28;6255761;28;20231;-73
2022/01/10 00:17:47;;;;;;;5.10;2.00;;;;;;;1.17;80.98;96884.81;6241809;28;20227;-73
2022/01/10 00:20:48;;;;;;;8.10;2.70;;;;;;;1.20;81.18;96884.59;6256410;28;20235;-72
2022/01/10 00:23:50;;;;;;;3.80;2.10;;;;;;;1.23;80.88;96892.25;6238248;28;20227;-72
2022/01/10 00:26:52;;;;;;;6.00;3.00;;;;;;;1.26;80.81;96889.47;6255876;28;20258;-72
2022/01/10 00:29:54;;;;;;;6.57;2.93;;;;;;;1.36;80.60;96885.44;6254599;28;20219;-73
2022/01/10 00:32:56;;;;;;;5.00;2.60;;;;;;;1.43;79.98;96885.94;6254382;28;20227;-73
2022/01/10 00:35:58;;;;;;;5.50;2.90;;;;;;;1.43;79.92;96897.16;6232439;28;20638;-74
2022/01/10 00:39:00;;;;;;;4.47;2.13;;;;;;;1.46;79.30;96891.81;6255493;28;20226;-72
2022/01/10 00:42:02;;;;;;;2.77;1.97;;;;;;;1.54;79.36;96898.31;6254737;28;20226;-73
2022/01/10 00:45:13;;;;;;;5.20;2.00;;;;;;;1.56;78.91;96901.66;6253196;28;20192;-72
2022/01/10 00:48:15;;;;;;;6.17;2.43;;;;;;;1.55;79.05;96900.84;6229381;28;20575;-73
2022/01/10 00:51:18;;;;;;;5.50;2.17;;;;;;;1.51;79.33;96909.72;6229587;28;20672;-73
2022/01/10 00:54:20;;;;;;;3.13;1.60;;;;;;;1.47;79.52;96908.22;6254416;28;20607;-73
2022/01/10 00:57:22;;;;;;;2.67;1.63;;;;;;;1.43;79.46;96917.13;6251894;28;20227;-73
2022/01/10 01:00:24;;;;;;;1.93;1.40;;;;;;;1.39;79.75;96916.47;6253542;28;20233;-73
2022/01/10 01:03:26;;;;;;;5.07;1.90;;;;;;;1.38;79.61;96912.19;6253848;28;20238;-73
2022/01/10 01:06:28;;;;;;;6.57;2.20;;;;;;;1.39;79.84;96913.03;6254513;28;20698;-73
2022/01/10 01:09:31;;;;;;;5.23;2.07;;;;;;;1.37;79.39;96912.28;6253677;28;20219;-72
2022/01/10 01:12:49;;;;;;;3.87;1.80;;;;;;;1.33;80.03;96916.78;6253939;28;20227;-72
2022/01/10 01:25:36;;;;;;;3.80;1.90;;;;;;;1.28;80.14;96923.19;6253026;28;20235;-73
2022/01/10 01:28:38;;;;;;;3.17;1.70;;;;;;;1.32;79.67;96927.28;6237027;28;20234;-73
2022/01/10 01:31:40;;;;;;;3.57;1.60;;;;;;;1.35;80.00;96927.13;6254109;28;20734;-73
2022/01/10 01:34:42;;;;;;;7.53;1.77;;;;;;;1.36;79.40;96929.63;6217113;28;20303;-73
2022/01/10 01:37:45;;;;;;;6.33;2.07;;;;;;;1.40;79.38;96941.50;6240754;28;20707;-73
2022/01/10 01:40:55;;;;;;;4.43;1.97;;;;;;;1.46;78.78;96930.78;6254302;28;21754;-73
2022/01/10 01:43:59;;;;;;;2.60;1.90;;;;;;;1.52;78.39;96936.56;6254126;28;20234;-73
2022/01/10 01:47:01;;;;;;;3.90;2.13;;;;;;;1.55;78.40;96939.00;6222445;28;20219;-73
2022/01/10 01:50:07;;;;;;;3.80;2.03;;;;;;;1.63;77.14;96939.41;6227307;28;20223;-72
2022/01/10 01:53:09;;;;;;;3.80;1.63;;;;;;;1.62;77.38;96940.31;6228332;28;20304;-73
2022/01/10 01:56:12;;;;;;;3.33;1.77;;;;;;;1.57;77.80;96940.59;6252606;28;20312;-73
2022/01/10 01:59:16;;;;;;;3.17;1.93;;;;;;;1.52;78.09;96940.00;6253244;28;20543;-74
2022/01/10 02:02:19;;;;;;;4.17;1.50;;;;;;;1.52;78.02;96949.56;6235597;28;20318;-73
2022/01/10 02:05:21;;;;;;;3.57;1.50;;;;;;;1.52;77.76;96949.56;6252234;28;20233;-73
2022/01/10 02:08:23;;;;;;;5.63;1.77;;;;;;;1.51;77.98;96947.88;6251841;28;20223;-73
2022/01/10 02:11:25;;;;;;;2.70;1.40;;;;;;;1.52;77.77;96946.97;6252272;28;20227;-73
2022/01/10 02:14:27;;;;;;;2.57;1.60;;;;;;;1.50;77.77;96947.03;6251463;28;20223;-73
2022/01/10 02:17:38;;;;;;;2.97;1.63;;;;;;;1.48;77.81;96948.91;6233443;28;20236;-73
2022/01/10 02:20:46;;;;;;;3.63;1.90;;;;;;;1.51;77.80;96960.88;6235808;28;20282;-73
2022/01/10 02:23:49;;;;;;;6.27;2.20;;;;;;;1.51;77.96;96948.72;6253369;28;20710;-72
2022/01/10 02:26:57;;;;;;;6.57;2.00;;;;;;;1.53;77.83;96956.44;6252562;28;20231;-73
2022/01/10 02:29:59;;;;;;;4.87;1.70;;;;;;;1.55;77.16;96952.00;6251589;28;20670;-73
2022/01/10 02:33:01;;;;;;;4.90;2.00;;;;;;;1.55;77.06;96952.84;6250844;28;20710;-72
2022/01/10 02:39:12;;;;;;;5.00;1.60;;;;;;;1.52;77.74;96958.19;6237757;28;20286;-73
2022/01/10 02:42:14;;;;;;;4.17;1.70;;;;;;;1.53;77.05;96951.25;6252160;28;20218;-73
2022/01/10 02:45:18;;;;;;;4.07;1.63;;;;;;;1.52;77.44;96959.97;6249501;28;20566;-73
2022/01/10 02:48:20;;;;;;;3.60;1.80;;;;;;;1.53;76.86;96965.06;6226510;28;20216;-73
2022/01/10 02:51:23;;;;;;;3.90;1.60;;;;;;;1.55;76.32;96965.84;6249654;28;20231;-72
2022/01/10 02:54:26;;;;;;;3.30;1.80;;;;;;;1.56;76.59;96958.88;6252004;28;20230;-73
2022/01/10 02:57:30;;;;;;;3.20;1.27;;;;;;;1.55;76.69;96972.78;6250611;28;20227;-72
2022/01/10 03:00:33;;;;;;;2.77;1.47;;;;;;;1.57;76.02;96965.75;6250803;28;20365;-72
2022/01/10 03:03:36;;;;;;;3.67;1.67;;;;;;;1.58;76.36;96970.03;6252515;28;20227;-73
2022/01/10 03:06:39;;;;;;;3.33;1.80;;;;;;;1.56;76.35;96971.88;6250297;28;20223;-73
2022/01/10 03:09:41;;;;;;;2.87;1.90;;;;;;;1.55;76.46;96971.03;6236509;28;20911;-73
2022/01/10 03:12:44;;;;;;;3.43;1.40;;;;;;;1.52;77.03;96976.41;6252987;28;20223;-72
2022/01/10 03:15:49;;;;;;;5.17;2.03;;;;;;;1.50;77.38;96982.63;6248410;28;20231;-73
2022/01/10 03:18:51;;;;;;;3.43;1.70;;;;;;;1.51;76.70;96989.47;6253428;28;20253;-73
2022/01/10 03:21:53;;;;;;;7.27;1.77;;;;;;;1.44;77.19;96992.44;6257216;28;20230;-72
2022/01/10 03:24:55;;;;;;;4.70;1.90;;;;;;;1.38;78.01;96991.94;6255926;28;20227;-73
2022/01/10 03:27:59;;;;;;;4.50;1.80;;;;;;;1.35;78.05;96997.28;6255833;28;20288;-73
2022/01/10 03:31:01;;;;;;;3.47;1.70;;;;;;;1.33;78.23;97004.34;6258313;28;20230;-73
2022/01/10 03:34:06;;;;;;;4.03;1.97;;;;;;;1.32;78.74;97007.84;6250933;28;20230;-73
2022/01/10 03:37:09;;;;;;;3.87;1.57;;;;;;;1.33;78.60;97019.94;6233385;28;20239;-73
2022/01/10 03:40:13;;;;;;;4.70;2.07;;;;;;;1.34;78.43;97019.84;6258302;28;20326;-72
2022/01/10 03:43:15;;;;;;;3.90;2.23;;;;;;;1.37;78.25;97022.28;6255199;28;20231;-73
2022/01/10 03:46:18;;;;;;;3.37;2.57;;;;;;;1.37;78.02;97024.88;6229626;28;20313;-73
2022/01/10 03:49:20;;;;;;;5.27;1.87;;;;;;;1.36;78.31;97023.22;6231978;28;20231;-73
2022/01/10 03:52:23;;;;;;;6.13;2.50;;;;;;;1.36;78.41;97033.59;6244549;28;20235;-72
2022/01/10 03:55:25;;;;;;;5.27;1.83;;;;;;;1.37;77.87;97034.44;6254233;28;20240;-73
2022/01/10 03:58:29;;;;;;;4.33;2.30;;;;;;;1.37;78.08;97031.84;6254962;28;20294;-73
2022/01/10 04:01:31;;;;;;;3.50;2.03;;;;;;;1.34;78.54;97040.63;6256565;28;20227;-73
2022/01/10 04:04:36;;;;;;;5.87;2.67;;;;;;;1.35;78.77;97044.91;6254374;28;20574;-72
2022/01/10 04:07:38;;;;;;;4.93;1.90;;;;;;;1.35;78.74;97046.69;6256237;28;20318;-73
2022/01/10 04:10:41;;;;;;;10.30;2.80;;;;;;;1.34;78.91;97053.63;6254598;28;20233;-73
2022/01/10 04:13:44;;;;;;;4.73;2.10;;;;;;;1.38;78.70;97057.75;6254083;28;20271;-73
2022/01/10 04:16:46;;;;;;;3.10;2.50;;;;;;;1.37;78.32;97056.09;6241782;28;20265;-72
2022/01/10 04:19:48;;;;;;;6.10;2.77;;;;;;;1.42;77.80;97066.22;6242396;28;20237;-73
2022/01/10 04:22:52;;;;;;;3.33;2.70;;;;;;;1.46;77.37;97067.75;6256744;28;20608;-74
2022/01/10 04:25:54;;;;;;;3.90;2.80;;;;;;;1.51;77.08;97077.88;6254712;28;20678;-71
2022/01/10 04:28:56;;;;;;;5.27;3.00;;;;;;;1.47;77.49;97080.66;6253403;28;20231;-73
2022/01/10 04:32:00;;;;;;;7.27;3.47;;;;;;;1.45;77.74;97072.09;6254882;28;20365;-73
2022/01/10 04:35:04;;;;;;;6.40;3.40;;;;;;;1.42;78.10;97081.81;6241663;28;20228;-72
2022/01/10 04:38:06;;;;;;;6.63;3.43;;;;;;;1.43;78.48;97083.50;6249646;28;20318;-74
2022/01/10 04:41:09;;;;;;;6.37;3.50;;;;;;;1.44;78.10;97079.97;6256261;28;20231;-72
2022/01/10 04:44:11;;;;;;;9.27;3.57;;;;;;;1.42;78.75;97085.25;6255039;28;20733;-73
2022/01/10 04:47:14;;;;;;;8.73;3.50;;;;;;;1.40;78.78;97099.25;6243188;28;20649;-73
2022/01/10 04:53:18;;;;;;;7.57;3.67;;;;;;;1.36;79.38;97108.16;6232652;28;20226;-73
2022/01/10 04:56:20;;;;;;;7.30;4.00;;;;;;;1.25;79.63;97119.09;6253235;28;20242;-74
2022/01/10 04:59:24;;;;;;;6.37;4.07;;;;;;;1.14;80.44;97124.03;6258828;28;20226;-74
2022/01/10 05:02:26;;;;;;;8.00;4.30;;;;;;;0.99;80.99;97128.25;6258955;28;20468;-73
2022/01/10 05:05:28;;;;;;;7.70;4.13;;;;;;;0.89;81.42;97124.44;6257267;28;20226;-75
2022/01/10 05:08:31;;;;;;;5.70;4.60;;;;;;;0.79;82.07;97135.38;6254933;28;20234;-75
2022/01/10 05:11:38;;;;;;;5.53;3.97;;;;;;;0.72;82.59;97133.06;6253517;28;20266;-75
2022/01/10 05:14:41;;;;;;;6.57;4.07;;;;;;;0.64;82.91;97144.75;6254658;28;20314;-75
2022/01/10 05:17:44;;;;;;;6.77;3.93;;;;;;;0.54;82.85;97149.56;6222336;28;20721;-74
2022/01/10 05:20:48;;;;;;;7.87;3.80;;;;;;;0.49;82.90;97151.56;6252586;28;20314;-75
2022/01/10 05:23:51;;;;;;;6.83;4.20;;;;;;;0.46;83.32;97158.63;6254238;28;20742;-74
2022/01/10 05:26:53;;;;;;;5.80;4.43;;;;;;;0.43;83.51;97153.59;6253597;28;20223;-74
2022/01/10 05:29:58;;;;;;;5.80;4.27;;;;;;;0.38;83.84;97155.59;6253355;28;20279;-75
2022/01/10 05:33:00;;;;;;;9.17;4.77;;;;;;;0.35;84.08;97162.59;6253511;28;20226;-72
2022/01/10 05:36:08;;;;;;;5.97;4.80;;;;;;;0.38;84.19;97165.97;6232286;28;20263;-75
2022/01/10 05:39:10;;;;;;;6.97;4.50;;;;;;;0.36;84.53;97176.41;6243816;28;20257;-76
2022/01/10 05:42:12;;;;;;;7.87;5.10;;;;;;;0.31;84.83;97166.22;6254247;28;20294;-76
2022/01/10 05:45:14;;;;;;;9.07;5.33;;;;;;;0.33;84.86;97169.59;6252282;28;20223;-76
2022/01/10 05:48:24;;;;;;;8.30;5.63;;;;;;;0.34;85.19;97176.47;6231850;28;20216;-75
2022/01/10 05:51:37;;;;;;;7.43;5.07;;;;;;;0.34;85.17;97175.63;6217548;28;20231;-76
2022/01/10 05:54:59;;;;;;;8.00;5.33;;;;;;;0.36;85.36;97182.44;6261313;28;20218;-74
2022/01/10 05:58:02;;;;;;;8.43;5.77;;;;;;;0.40;86.06;97179.72;6258485;28;20333;-76
2022/01/10 06:01:04;;;;;;;9.47;6.13;;;;;;;0.41;85.93;97182.22;6257032;28;20231;-76
2022/01/10 06:04:06;;;;;;;8.87;6.43;;;;;;;0.45;85.82;97180.31;6254211;28;20235;-77
2022/01/10 06:07:14;;;;;;;8.13;6.27;;;;;;;0.46;86.09;97185.44;6254045;28;20242;-78
2022/01/10 06:10:20;;;;;;;8.27;5.90;;;;;;;0.50;86.04;97183.53;6253219;28;20238;-78
2022/01/10 06:13:23;;;;;;;10.30;5.70;;;;;;;0.51;85.28;97193.00;6253146;28;20246;-77
2022/01/10 06:16:25;;;;;;;8.03;5.83;;;;;;;0.47;85.69;97192.31;6232570;28;20227;-76
2022/01/10 06:19:27;;;;;;;9.93;6.67;;;;;;;0.48;85.78;97193.16;6252102;28;20239;-76
2022/01/10 06:22:29;;;;;;;10.50;6.10;;;;;;;0.50;85.86;97196.53;6252904;28;20234;-75
2022/01/10 06:25:31;;;;;;;10.60;5.90;;;;;;;0.53;85.60;97198.94;6251701;28;20645;-76
2022/01/10 06:28:33;;;;;;;9.30;6.00;;;;;;;0.53;85.74;97204.16;6250538;28;20704;-75
2022/01/10 06:31:37;;;;;;;10.93;6.70;;;;;;;0.54;85.56;97211.03;6251618;28;20309;-75
2022/01/10 06:34:44;;;;;;;9.37;6.23;;;;;;;0.58;85.42;97208.22;6219320;28;20726;-75
2022/01/10 06:37:47;;;;;;;12.30;6.73;;;;;;;0.59;85.04;97228.06;6214586;28;20261;-76
2022/01/10 06:40:51;;;;;;;9.07;5.53;;;;;;;0.59;85.50;97228.06;6252714;28;20770;-75
2022/01/10 06:43:53;;;;;;;8.67;5.90;;;;;;;0.61;84.91;97234.00;6252500;28;20234;-75
2022/01/10 06:46:57;;;;;;;8.70;5.53;;;;;;;0.61;85.02;97233.16;6239089;28;20222;-74
2022/01/10 06:49:59;;;;;;;9.03;6.23;;;;;;;0.57;85.40;97242.03;6226811;28;20228;-74
2022/01/10 06:53:02;;;;;;;11.00;6.00;;;;;;;0.57;85.49;97253.25;6228483;28;20618;-74
2022/01/10 06:56:06;;;;;;;10.33;6.10;;;;;;;0.55;85.60;97255.09;6248920;28;20372;-75
2022/01/10 06:59:11;;;;;;;7.83;5.43;;;;;;;0.53;85.62;97256.06;6251651;28;20235;-74
2022/01/10 07:02:19;;;;;;;8.03;5.60;;;;;;;0.48;85.52;97271.03;6253631;28;20230;-74
2022/01/10 07:05:23;;;;;;;10.87;6.70;;;;;;;0.38;85.69;97260.22;6251276;28;20606;-74
2022/01/10 07:08:29;;;;;;;8.53;6.00;;;;;;;0.32;86.42;97274.31;6235885;28;20238;-75
2022/01/10 07:11:35;;;;;;;10.17;6.20;;;;;;;0.30;86.52;97267.53;6251746;28;20237;-74
2022/01/10 07:14:37;;;;;;;8.40;5.90;;;;;;;0.31;86.85;97272.63;6251455;28;20289;-74
2022/01/10 07:17:42;;;;;;;9.97;6.33;;;;;;;0.31;86.57;97287.34;6230499;28;20228;-75
2022/01/10 07:20:46;;;;;;;10.43;6.70;;;;;;;0.31;86.62;97296.00;6253657;28;20238;-74
2022/01/10 07:23:49;;;;;;;12.13;7.13;;;;;;;0.38;87.23;97296.56;6253312;28;20711;-74
2022/01/10 07:26:51;;;;;;;14.37;7.43;;;;;;;0.47;87.39;97298.75;6252120;28;20321;-74
2022/01/10 07:29:54;;;;;;;8.97;6.70;;;;;;;0.56;87.23;97313.88;6250976;28;20237;-75
2022/01/10 07:32:56;;;;;;;10.73;6.17;;;;;;;0.61;86.46;97317.09;6251522;28;20242;-74
2022/01/10 07:35:57;;;;;;;10.83;6.27;;;;;;;0.62;86.21;97315.34;6231530;28;20247;-73
2022/01/10 07:38:59;;;;;;;11.90;7.13;;;;;;;0.63;86.55;97323.06;6234633;28;20215;-73
2022/01/10 07:42:02;;;;;;;9.43;5.77;;;;;;;0.67;86.50;97332.41;6251615;28;20207;-73
2022/01/10 07:45:19;;;;;;;11.77;6.70;;;;;;;0.72;85.89;97334.78;6249090;28;20199;-74
2022/01/10 07:48:21;;;;;;;8.73;6.70;;;;;;;0.73;86.17;97331.28;6239312;28;20266;-76
2022/01/10 07:51:26;;;;;;;9.73;6.43;;;;;;;0.73;86.17;97342.50;6227619;28;20244;-75
2022/01/10 07:54:28;;;;;;;12.27;5.97;;;;;;;0.73;85.73;97354.63;6246524;28;20693;-74
2022/01/10 07:57:30;;;;;;;8.70;5.73;;;;;;;0.69;86.19;97345.31;6251345;28;20736;-75
2022/01/10 08:00:32;;;;;;;8.83;6.70;;;;;;;0.67;86.47;97360.13;6251598;28;20718;-75
2022/01/10 08:03:34;;;;;;;11.00;7.07;;;;;;;0.64;86.12;97368.06;6256703;28;20283;-75
2022/01/10 08:06:36;;;;;;;10.90;6.00;;;;;;;0.65;86.78;97369.75;6254618;28;20226;-74
2022/01/10 08:09:38;;;;;;;11.17;6.93;;;;;;;0.61;86.77;97375.97;6255922;28;20227;-76
2022/01/10 08:12:41;;;;;;;10.77;6.27;;;;;;;0.57;86.68;97387.44;6255175;28;20345;-75
2022/01/10 08:15:43;;;;;;;7.30;5.97;;;;;;;0.58;86.95;97379.56;6248940;28;20687;-75
2022/01/10 08:18:45;;;;;;;9.70;6.40;;;;;;;0.59;86.37;97386.44;6252237;28;20261;-75
2022/01/10 08:21:49;;;;;;;7.93;5.80;;;;;;;0.59;86.52;97386.44;6257206;28;20242;-75
2022/01/10 08:24:52;;;;;;;8.97;5.73;;;;;;;0.56;86.44;97393.53;6255371;28;20231;-75
2022/01/10 08:27:54;;;;;;;10.87;6.43;;;;;;;0.50;86.80;97392.03;6254781;28;20235;-75
2022/01/10 08:30:56;;;;;;;10.73;5.70;;;;;;;0.52;86.63;97397.16;6255760;28;20236;-74
2022/01/10 08:34:00;;;;;;;10.53;6.47;;;;;;;0.55;87.17;97397.88;6250328;28;20235;-73
2022/01/10 08:37:02;;;;;;;9.23;6.57;;;;;;;0.54;87.18;97401.38;6230303;28;20235;-74
2022/01/10 08:40:05;;;;;;;7.53;5.83;;;;;;;0.53;86.78;97414.41;6230729;28;20663;-74
2022/01/10 08:43:10;;;;;;;8.37;5.70;;;;;;;0.51;87.11;97414.47;6252828;28;20235;-75
2022/01/10 08:46:12;;;;;;;12.37;6.53;;;;;;;0.52;87.14;97416.19;6245166;28;20244;-75
2022/01/10 08:49:23;;;;;;;9.17;6.47;;;;;;;0.54;87.50;97429.94;6247557;28;20349;-75
2022/01/10 08:52:25;;;;;;;7.53;6.10;;;;;;;0.55;87.47;97426.44;6255389;28;20241;-75
2022/01/10 08:55:27;;;;;;;9.40;6.33;;;;;;;0.55;87.43;97438.56;6254045;28;20583;-76
2022/01/10 08:58:32;;;;;;;8.60;6.20;;;;;;;0.57;87.53;97439.34;6253770;28;20235;-75
2022/01/10 09:01:34;;;;;;;10.20;6.80;;;;;;;0.58;87.59;97447.06;6254363;28;20223;-75
2022/01/10 09:04:37;;;;;;;9.20;6.47;;;;;;;0.62;87.29;97446.00;6254030;28;20231;-75
2022/01/10 09:07:39;;;;;;;8.73;6.90;;;;;;;0.66;87.47;97450.16;6254767;28;20227;-75
2022/01/10 09:10:41;;;;;;;9.70;6.93;;;;;;;0.73;87.56;97450.72;6254158;28;20235;-75
2022/01/10 09:13:43;;;;;;;8.27;6.50;;;;;;;0.80;87.42;97462.53;6253031;28;20231;-76
2022/01/10 09:16:46;;;;;;;8.40;6.10;;;;;;;0.83;87.39;97458.94;6238785;28;20281;-76
2022/01/10 09:19:48;;;;;;;7.77;6.13;;;;;;;0.84;87.33;97468.44;6243675;28;20590;-75
2022/01/10 09:22:50;;;;;;;7.43;5.70;;;;;;;0.84;86.90;97458.88;6254118;28;20270;-75
2022/01/10 09:25:53;;;;;;;7.53;6.10;;;;;;;0.82;87.26;97465.91;6253308;28;20230;-74
2022/01/10 09:28:55;;;;;;;7.60;5.77;;;;;;;0.78;87.08;97469.56;6254635;28;20218;-74
2022/01/10 09:31:57;;;;;;;7.40;5.80;;;;;;;0.80;86.81;97475.50;6252703;28;20702;-73
2022/01/10 09:34:59;;;;;;;7.17;6.43;;;;;;;0.82;86.58;97475.44;6246711;28;20243;-74
2022/01/10 09:38:01;;;;;;;9.53;6.10;;;;;;;0.82;86.97;97471.09;6233558;28;20341;-76
2022/01/10 09:41:03;;;;;;;8.27;5.77;;;;;;;0.82;87.08;97476.28;6250000;28;20628;-74
2022/01/10 09:44:08;;;;;;;8.13;6.63;;;;;;;0.82;87.11;97486.69;6258676;28;20237;-73
2022/01/10 09:47:11;;;;;;;7.87;6.27;;;;;;;0.79;86.79;97488.59;6244423;28;20227;-74
2022/01/10 09:50:16;;;;;;;8.27;6.80;;;;;;;0.76;87.18;97491.31;6228953;28;20227;-73
2022/01/10 09:53:24;;;;;;;8.40;7.07;;;;;;;0.77;86.78;97496.44;6236669;28;20710;-73
2022/01/10 09:56:28;;;;;;;7.70;5.93;;;;;;;0.78;87.26;97499.88;6252785;28;20691;-75
2022/01/10 09:59:30;;;;;;;7.00;6.13;;;;;;;0.79;87.46;97501.56;6254083;28;20733;-72
2022/01/10 10:02:35;;;;;;;7.23;5.60;;;;;;;0.79;86.84;97504.16;6251837;28;20584;-73
2022/01/10 10:05:37;;;;;;;7.10;5.77;;;;;;;0.79;87.26;97512.81;6253891;28;20336;-73
2022/01/10 10:08:39;;;;;;;7.50;6.03;;;;;;;0.82;86.69;97498.81;6252613;28;20229;-73
2022/01/10 10:11:47;;;;;;;10.00;6.23;;;;;;;0.83;87.06;97501.34;6253591;28;20223;-73
2022/01/10 10:14:50;;;;;;;8.63;6.43;;;;;;;0.84;86.67;97504.78;6251805;28;20729;-73
2022/01/10 10:17:52;;;;;;;10.40;7.37;;;;;;;0.84;86.98;97510.00;6237082;28;20238;-73
2022/01/10 10:20:55;;;;;;;9.80;6.63;;;;;;;0.83;87.36;97510.91;6251384;28;20238;-73
2022/01/10 10:23:58;;;;;;;10.00;6.80;;;;;;;0.84;87.09;97507.38;6251915;28;20245;-71
2022/01/10 10:27:00;;;;;;;8.00;6.93;;;;;;;0.91;87.49;97516.59;6250786;28;20729;-73
2022/01/10 10:30:10;;;;;;;8.43;6.90;;;;;;;0.93;87.54;97513.03;6252668;28;20234;-73
2022/01/10 10:33:23;;;;;;;8.37;6.13;;;;;;;0.97;87.31;97518.94;6251388;28;20668;-73
2022/01/10 10:36:26;;;;;;;8.23;6.50;;;;;;;0.98;86.97;97520.63;6228264;28;20220;-73
2022/01/10 10:39:29;;;;;;;7.23;6.10;;;;;;;0.99;86.61;97527.50;6244207;28;20222;-73
2022/01/10 10:42:32;;;;;;;6.90;5.90;;;;;;;1.00;86.25;97537.81;6252882;28;20226;-73
2022/01/10 10:45:35;;;;;;;6.63;5.70;;;;;;;0.98;86.27;97536.22;6248176;28;20734;-73
2022/01/10 10:48:39;;;;;;;6.57;5.77;;;;;;;0.96;86.73;97538.03;6227161;28;20318;-72
2022/01/10 10:51:41;;;;;;;5.53;5.00;;;;;;;0.95;86.85;97544.13;6234246;28;20695;-72
2022/01/10 10:54:43;;;;;;;6.50;5.30;;;;;;;0.91;86.67;97545.16;6251181;28;20230;-73
2022/01/10 10:57:48;;;;;;;6.43;5.33;;;;;;;0.89;86.49;97545.25;6253060;28;20714;-73
2022/01/10 11:00:50;;;;;;;7.20;5.77;;;;;;;0.91;86.67;97550.34;6252071;28;20223;-73
2022/01/10 11:03:54;;;;;;;5.60;5.00;;;;;;;0.85;86.83;97558.44;6250552;28;20244;-73
2022/01/10 11:06:57;;;;;;;6.67;5.20;;;;;;;0.83;86.89;97553.31;6251416;28;20628;-73
2022/01/10 11:10:00;;;;;;;5.07;4.57;;;;;;;0.84;87.23;97552.38;6251401;28;20242;-72
2022/01/10 11:13:03;;;;;;;6.03;5.10;;;;;;;0.89;86.87;97560.84;6251428;28;20603;-71
2022/01/10 11:16:07;;;;;;;5.10;4.60;;;;;;;0.94;87.25;97561.47;6250670;28;20259;-73
2022/01/10 11:19:21;;;;;;;4.53;4.10;;;;;;;0.95;86.58;97554.53;6251754;28;20304;-72
2022/01/10 11:22:23;;;;;;;4.17;3.77;;;;;;;0.96;86.44;97569.19;6252219;28;20600;-73
2022/01/10 11:25:27;;;;;;;4.77;3.73;;;;;;;0.96;86.51;97567.44;6250899;28;20238;-73
2022/01/10 11:28:29;;;;;;;5.20;4.03;;;;;;;0.92;86.64;97560.69;6249289;28;20223;-73
2022/01/10 11:31:31;;;;;;;4.33;3.87;;;;;;;0.95;86.83;97568.34;6251712;28;20234;-73
2022/01/10 11:34:33;;;;;;;5.20;4.37;;;;;;;0.96;86.60;97569.19;6240965;28;20231;-73
2022/01/10 11:37:35;;;;;;;6.93;4.03;;;;;;;0.92;86.33;97568.47;6229863;28;20242;-72
2022/01/10 11:40:37;;;;;;;5.90;4.97;;;;;;;0.92;86.51;97567.63;6241739;28;20604;-73
2022/01/10 11:43:49;;;;;;;5.07;4.50;;;;;;;0.91;86.34;97566.78;6256868;28;20241;-73
2022/01/10 11:46:57;;;;;;;5.63;4.77;;;;;;;0.90;86.34;97572.91;6246548;28;20634;-73
2022/01/10 11:50:29;;;;;;;6.13;4.60;;;;;;;0.95;86.57;97564.91;6211353;28;20305;-72
2022/01/10 11:53:31;;;;;;;6.53;5.83;;;;;;;0.93;86.84;97566.72;6255076;28;20890;-73
2022/01/10 11:56:35;;;;;;;6.77;5.70;;;;;;;0.93;86.82;97572.78;6257248;28;20737;-72
2022/01/10 11:59:39;;;;;;;7.47;6.47;;;;;;;0.92;87.09;97576.28;6256338;28;20255;-72
2022/01/10 12:02:41;;;;;;;8.60;7.37;;;;;;;0.94;87.44;97579.66;6255030;28;20697;-72
2022/01/10 12:05:43;;;;;;;11.50;7.40;;;;;;;0.93;86.89;97580.56;6256894;28;20227;-72
2022/01/10 12:08:45;;;;;;;9.37;7.57;;;;;;;0.97;87.28;97586.47;6254264;28;20234;-73
2022/01/10 12:11:50;;;;;;;12.33;8.50;;;;;;;0.98;87.56;97588.16;6253486;28;20227;-73
2022/01/10 12:14:53;;;;;;;10.07;8.20;;;;;;;0.96;86.83;97590.00;6255484;28;20727;-73
2022/01/10 12:17:55;;;;;;;10.40;8.77;;;;;;;0.96;87.45;97588.22;6237501;28;20254;-73
2022/01/10 12:20:57;;;;;;;12.17;9.23;;;;;;;0.97;87.41;97587.31;6254582;28;20231;-73
2022/01/10 12:23:59;;;;;;;11.30;8.43;;;;;;;1.01;87.15;97595.81;6253748;28;20239;-73
2022/01/10 12:27:03;;;;;;;12.33;9.03;;;;;;;1.00;87.51;97586.31;6253719;28;20231;-72
2022/01/10 12:30:05;;;;;;;13.40;9.37;;;;;;;1.05;86.92;97590.44;6255146;28;20713;-73
2022/01/10 12:33:07;;;;;;;14.40;9.70;;;;;;;1.08;87.10;97603.28;6256552;28;20222;-73
2022/01/10 12:36:10;;;;;;;12.20;8.83;;;;;;;1.08;86.96;97605.91;6233226;28;20302;-73
2022/01/10 12:39:24;;;;;;;12.40;9.63;;;;;;;1.16;86.80;97604.72;6241360;28;20288;-73
2022/01/10 12:42:26;;;;;;;12.30;9.40;;;;;;;1.22;86.77;97614.81;6255053;28;20364;-72
2022/01/10 12:45:35;;;;;;;12.57;9.93;;;;;;;1.20;86.75;97606.28;6250897;28;20707;-73
2022/01/10 12:48:39;;;;;;;13.50;10.10;;;;;;;1.23;86.67;97616.50;6230265;28;20253;-73
2022/01/10 12:51:45;;;;;;;13.93;10.57;;;;;;;1.21;86.59;97626.97;6230398;28;20223;-74
2022/01/10 12:54:49;;;;;;;12.63;9.57;;;;;;;1.22;86.73;97631.25;6253461;28;20219;-73
2022/01/10 12:57:51;;;;;;;15.87;11.00;;;;;;;1.17;86.89;97638.44;6252744;28;20270;-73
2022/01/10 13:00:53;;;;;;;13.67;10.77;;;;;;;1.22;86.75;97636.47;6258772;28;20261;-73
2022/01/10 13:04:00;;;;;;;13.87;10.70;;;;;;;1.23;87.05;97653.75;6257649;28;20223;-72
2022/01/10 13:07:14;;;;;;;15.40;11.03;;;;;;;1.19;86.16;97662.59;6253800;28;20219;-72
2022/01/10 13:10:33;;;;;;;15.77;12.07;;;;;;;1.13;87.00;97675.00;6254270;28;20617;-73
2022/01/10 13:13:36;;;;;;;13.90;10.57;;;;;;;1.14;86.97;97676.69;6253554;28;20239;-73
2022/01/10 13:16:40;;;;;;;14.83;10.63;;;;;;;1.15;87.02;97688.78;6245269;28;20231;-73
2022/01/10 13:19:44;;;;;;;13.57;10.40;;;;;;;1.16;87.20;97693.91;6253582;28;20714;-72
2022/01/10 13:22:46;;;;;;;14.93;10.97;;;;;;;1.12;87.32;97700.13;6255506;28;20235;-73
2022/01/10 13:25:50;;;;;;;17.60;12.20;;;;;;;1.10;87.48;97705.41;6253492;28;20227;-73
2022/01/10 13:28:52;;;;;;;14.63;12.00;;;;;;;1.08;87.04;97709.84;6252270;28;20242;-73
2022/01/10 13:31:54;;;;;;;15.87;11.90;;;;;;;1.03;87.69;97710.91;6255162;28;20230;-73
2022/01/10 13:35:06;;;;;;;16.03;11.97;;;;;;;1.03;87.54;97713.53;6241724;28;20559;-72
2022/01/10 13:38:15;;;;;;;16.63;11.30;;;;;;;1.01;87.38;97713.59;6228506;28;20224;-73
2022/01/10 13:41:17;;;;;;;14.73;12.20;;;;;;;1.02;87.71;97723.06;6239903;28;20603;-73
2022/01/10 13:44:19;;;;;;;17.80;12.80;;;;;;;1.03;87.13;97721.31;6253564;28;20294;-73
2022/01/10 13:47:21;;;;;;;18.80;13.10;;;;;;;1.04;87.27;97725.59;6235444;28;20224;-73
2022/01/10 13:50:29;;;;;;;15.50;11.73;;;;;;;1.06;87.53;97724.66;6227816;28;20223;-73
2022/01/10 13:53:43;;;;;;;19.10;13.40;;;;;;;1.05;87.34;97733.34;6229248;28;20656;-73
2022/01/10 13:56:46;;;;;;;18.03;13.20;;;;;;;1.03;87.83;97736.91;6228564;28;20227;-73
2022/01/10 14:00:08;;;;;;;17.53;13.23;;;;;;;1.06;87.60;97750.63;6249746;28;20238;-73
2022/01/10 14:03:21;;;;;;;19.43;14.00;;;;;;;1.07;87.48;97752.31;6252928;28;20227;-73
2022/01/10 14:06:24;;;;;;;19.60;13.20;;;;;;;1.05;87.67;97748.94;6253017;28;20719;-73
2022/01/10 14:09:29;;;;;;;15.20;12.13;;;;;;;1.07;87.31;97765.31;6253015;28;20227;-73
2022/01/10 14:12:31;;;;;;;19.90;14.37;;;;;;;1.06;87.81;97763.63;6254507;28;20242;-73
2022/01/10 14:15:33;;;;;;;16.67;13.50;;;;;;;1.09;87.66;97773.06;6248793;28;20231;-73
2022/01/10 14:18:35;;;;;;;20.30;12.77;;;;;;;1.10;87.65;97775.56;6234693;28;20222;-73
2022/01/10 14:21:39;;;;;;;18.17;13.93;;;;;;;1.09;86.92;97780.84;6257554;28;20223;-73
2022/01/10 14:24:40;;;;;;;17.27;14.33;;;;;;;1.10;87.19;97785.97;6227310;28;20234;-73
2022/01/10 14:27:44;;;;;;;21.73;14.37;;;;;;;1.10;86.84;97787.72;6211153;28;20700;-73
2022/01/10 14:30:47;;;;;;;18.93;13.33;;;;;;;1.13;86.88;97799.75;6223987;28;20223;-73
2022/01/10 14:33:49;;;;;;;18.67;13.37;;;;;;;1.14;86.85;97806.63;6239481;28;20292;-73
2022/01/10 14:36:51;;;;;;;16.70;12.77;;;;;;;1.14;86.88;97809.22;6231131;28;20280;-73
2022/01/10 14:39:53;;;;;;;17.93;14.03;;;;;;;1.16;87.12;97810.88;6221640;28;20710;-73
2022/01/10 14:42:55;;;;;;;19.57;13.47;;;;;;;1.16;87.16;97810.03;6208249;28;20250;-73
2022/01/10 14:45:57;;;;;;;18.33;13.80;;;;;;;1.15;87.10;97819.56;6217892;28;20223;-72
2022/01/10 14:49:04;;;;;;;20.07;14.03;;;;;;;1.14;86.69;97823.06;6213176;28;20837;-72